Waterman, Pennsylvania
Current Conditions -  °F | °C
As of 1:15 AM on Monday 26 Jan 2015 (Local Time) from KIDI Reporting Station
Haze Haze  
Wind Chill: -6°   Ceiling: 300
Heat Index: -1°   Visibility: 0.75mi
Dew Point: -1°   Wind: 10mph
Humidity: 100%   Direction: 90°E
Pressure: 29.78"   Gusts: NA
Location:  40.5413°N, 79.1838°W
Report Text: KIDI 260615Z AUTO 09009KT 3/4SM BR OVC003 M01/M01 A2978 RMK A01
Loading
Personal Weather Stations






























Interactive Weather Map New forecast layout! Learn more

10-Day Weather Forecast

Advertisements
Track Severe Weather on mobile